Terminal Aerodrome Forecast
Issued by NWS

Home | Current Version | Previous Version | Text Only | Print | Product List | Glossary On
Versions: 1 2 3 4 5 6 7 8 9 10 11 12 13 14 15 16 17 18 19
000
FTUS43 KBIS 210716 AAA
TAFDIK
TAF AMD
KDIK 210716Z 2107/2206 29018G26KT P6SM BKN200 WS020/28040KT
     FM211400 28021G30KT P6SM SCT070 WS020/29040KT
     FM220100 28013KT P6SM FEW200 WS020/29035KT
     FM220400 26009KT P6SM SKC WS020/29030KT=

USA.gov is the U.S. government's official web portal to all federal, state and local government web resources and services.